Time;durP1;ratioP1;P1;durP2;ratioP2;P2;SDS_P1;SDS_P2;PMS_P1;PMS_P2;Temp;Humidity;BMP_temperature;BMP_pressure;BME280_temperature;BME280_humidity;BME280_pressure;Samples;Min_cycle;Max_cycle;Signal;HPM_P1;HPM_P2
2022/12/23 00:00:13;;;;;;;16.83;7.47;;;11.80;99.90;;;;;;5038795;28;20230;-90
2022/12/23 00:03:09;;;;;;;17.53;7.73;;;11.90;99.90;;;;;;5035208;28;20267;-91
2022/12/23 00:16:31;;;;;;;11.13;4.73;;;11.80;99.90;;;;;;5059425;28;20223;-90
2022/12/23 00:19:03;;;;;;;11.77;4.97;;;11.70;99.90;;;;;;5061081;28;20209;-89
2022/12/23 00:24:42;;;;;;;11.13;4.30;;;11.80;99.90;;;;;;5071962;28;20179;-89
2022/12/23 00:27:26;;;;;;;9.70;3.97;;;11.70;99.90;;;;;;5058729;28;20177;-89
2022/12/23 00:30:26;;;;;;;;;;;;;;;;;;;;;
2022/12/23 00:36:47;;;;;;;9.77;4.00;;;11.80;99.90;;;;;;5060340;28;20205;-91
2022/12/23 00:42:58;;;;;;;12.73;4.50;;;11.80;99.90;;;;;;5058031;28;20264;-91
2022/12/23 00:52:01;;;;;;;14.50;4.97;;;11.80;99.90;;;;;;5047098;28;20726;-90
2022/12/23 00:54:30;;;;;;;15.07;5.20;;;11.80;99.90;;;;;;5043235;28;20181;-89
2022/12/23 00:57:04;;;;;;;14.30;4.93;;;11.90;99.90;;;;;;5052739;28;20218;-88
2022/12/23 00:59:32;;;;;;;11.57;5.50;;;12.00;99.90;;;;;;5048694;28;20177;-89
2022/12/23 01:08:04;;;;;;;13.67;5.40;;;12.00;99.90;;;;;;5059054;28;20256;-90
2022/12/23 01:14:08;;;;;;;10.87;5.13;;;11.90;99.90;;;;;;4975744;28;20176;-88
2022/12/23 01:24:16;;;;;;;;;;;;;;;;;;;;;
2022/12/23 04:26:42;;;;;;;11.03;4.77;;;11.60;99.90;;;;;;4968880;29;20181;-91
2022/12/23 04:43:33;;;;;;;;;;;;;;;;;;;;;
2022/12/23 04:59:53;;;;;;;12.10;7.77;;;11.20;99.90;;;;;;4957960;29;20186;-90
2022/12/23 05:13:19;;;;;;;12.07;6.80;;;11.10;99.90;;;;;;4863822;29;20261;-91
2022/12/23 05:23:09;;;;;;;;;;;;;;;;;;;;;
2022/12/23 05:25:51;;;;;;;9.90;5.57;;;11.30;99.90;;;;;;4936596;29;20196;-91
2022/12/23 05:32:50;;;;;;;10.60;5.83;;;11.30;99.90;;;;;;4938206;29;20207;-90
2022/12/23 05:42:47;;;;;;;11.03;5.93;;;11.20;99.90;;;;;;4834573;29;20228;-89
2022/12/23 05:48:41;;;;;;;9.77;5.90;;;11.20;99.90;;;;;;4998114;28;20233;-89
2022/12/23 05:55:10;;;;;;;10.30;5.80;;;11.10;99.90;;;;;;4996069;28;20227;-89
2022/12/23 05:58:27;;;;;;;12.53;6.27;;;11.10;99.90;;;;;;4997207;28;20265;-89
2022/12/23 06:08:39;;;;;;;;;;;;;;;;;;;;;
2022/12/23 06:32:24;;;;;;;10.13;5.87;;;11.10;99.90;;;;;;4812534;29;20205;-91
2022/12/23 06:34:53;;;;;;;12.93;5.97;;;11.20;99.90;;;;;;4808470;29;20183;-89
2022/12/23 06:37:23;;;;;;;11.67;6.23;;;11.30;99.90;;;;;;4914715;29;20219;-90
2022/12/23 06:39:51;;;;;;;12.83;5.90;;;11.20;99.90;;;;;;4956768;29;20184;-91
2022/12/23 06:43:16;;;;;;;12.17;5.73;;;11.10;99.90;;;;;;4956986;29;20192;-91
2022/12/23 07:02:47;;;;;;;14.60;7.10;;;11.10;99.90;;;;;;4935438;28;20173;-89
2022/12/23 07:05:29;;;;;;;14.90;7.43;;;11.20;99.90;;;;;;4978146;28;20180;-90
2022/12/23 07:08:12;;;;;;;12.97;6.77;;;11.40;99.90;;;;;;5006745;28;20184;-91
2022/12/23 07:11:14;;;;;;;13.57;7.07;;;11.20;99.90;;;;;;5060621;28;20194;-89
2022/12/23 07:14:10;;;;;;;;;;;;;;;;;;;;;
2022/12/23 07:16:44;;;;;;;16.63;7.43;;;11.60;99.90;;;;;;5078150;28;20249;-89
2022/12/23 07:19:39;;;;;;;15.40;7.17;;;11.40;99.90;;;;;;5078059;28;20177;-90
2022/12/23 07:22:39;;;;;;;11.90;6.87;;;11.40;99.90;;;;;;5040310;28;20205;-89
2022/12/23 07:25:36;;;;;;;15.17;7.43;;;11.40;99.90;;;;;;5055186;28;20199;-90
2022/12/23 07:28:36;;;;;;;12.47;6.17;;;11.30;99.90;;;;;;5060922;28;20666;-92
2022/12/23 07:31:23;;;;;;;12.27;6.10;;;11.20;99.90;;;;;;5066331;28;20260;-87
2022/12/23 07:34:05;;;;;;;17.07;7.20;;;11.30;99.90;;;;;;5041317;28;20182;-88
2022/12/23 07:37:23;;;;;;;17.17;6.83;;;11.40;99.90;;;;;;5059422;28;20307;-88
2022/12/23 07:40:06;;;;;;;14.23;6.30;;;11.30;99.90;;;;;;5065120;28;20192;-90
2022/12/23 07:43:47;;;;;;;;;;;;;;;;;;;;;
2022/12/23 07:46:46;;;;;;;15.77;6.30;;;11.20;99.90;;;;;;5059640;28;20277;-92
2022/12/23 07:50:05;;;;;;;10.97;5.70;;;11.40;99.90;;;;;;5031710;28;20203;-91
2022/12/23 07:52:53;;;;;;;12.70;6.23;;;11.50;99.90;;;;;;5014199;28;20681;-91
2022/12/23 07:56:06;;;;;;;13.90;6.57;;;11.40;99.90;;;;;;5039372;28;20212;-89
2022/12/23 07:58:41;;;;;;;12.17;6.27;;;11.40;99.90;;;;;;5038592;28;20283;-90
2022/12/23 08:26:35;;;;;;;14.37;5.57;;;11.40;99.90;;;;;;4785364;29;20719;-90
2022/12/23 08:33:35;;;;;;;12.43;5.60;;;11.50;99.90;;;;;;4827955;29;20685;-90
2022/12/23 08:58:26;;;;;;;10.23;4.50;;;11.50;99.90;;;;;;5058586;28;20216;-90
2022/12/23 09:02:00;;;;;;;;;;;;;;;;;;;;;
2022/12/23 09:12:11;;;;;;;;;;;;;;;;;;;;;
2022/12/23 09:25:58;;;;;;;10.10;4.43;;;11.50;99.90;;;;;;4800750;30;20209;-89
2022/12/23 09:29:42;;;;;;;7.37;4.13;;;11.50;99.90;;;;;;4807916;29;20221;-90
2022/12/23 09:33:18;;;;;;;8.63;4.97;;;11.40;99.90;;;;;;4716264;30;20209;-90
2022/12/23 09:36:36;;;;;;;;;;;;;;;;;;;;;
2022/12/23 09:50:47;;;;;;;;;;;;;;;;;;;;;
2022/12/23 10:45:29;;;;;;;;;;;;;;;;;;;;;
2022/12/23 10:49:01;;;;;;;;;;;;;;;;;;;;;
2022/12/23 11:36:55;;;;;;;6.40;5.13;;;12.50;99.90;;;;;;4924634;29;20226;-91
2022/12/23 11:40:04;;;;;;;8.53;4.90;;;12.30;99.90;;;;;;4843095;29;20196;-91
2022/12/23 11:42:33;;;;;;;4.60;3.50;;;12.10;99.90;;;;;;4847206;29;20230;-91
2022/12/23 11:49:35;;;;;;;4.37;3.23;;;12.10;99.90;;;;;;4917861;29;20197;-90
2022/12/23 11:55:31;;;;;;;6.93;3.50;;;12.20;99.90;;;;;;4881437;29;20291;-92
2022/12/23 11:58:51;;;;;;;4.20;3.40;;;12.20;99.90;;;;;;4890861;29;20174;-90
2022/12/23 12:01:16;;;;;;;4.93;3.43;;;12.30;99.90;;;;;;4990877;28;20266;-92
2022/12/23 12:03:58;;;;;;;6.50;4.13;;;12.30;99.90;;;;;;5042556;28;20200;-92
2022/12/23 12:06:53;;;;;;;5.70;3.27;;;12.40;99.90;;;;;;5058309;28;20278;-91
2022/12/23 12:30:59;;;;;;;3.40;2.10;;;13.40;99.90;;;;;;4902486;28;20365;-93
2022/12/23 12:33:55;;;;;;;;;;;;;;;;;;;;;
2022/12/23 12:37:06;;;;;;;3.43;2.50;;;13.50;99.90;;;;;;5062036;28;20290;-93
2022/12/23 12:40:02;;;;;;;3.37;2.00;;;13.60;99.90;;;;;;5051547;28;20282;-93
2022/12/23 12:42:58;;;;;;;2.33;1.50;;;13.70;99.90;;;;;;5036931;28;20183;-92
2022/12/23 12:45:44;;;;;;;2.13;1.60;;;13.80;99.90;;;;;;5004198;28;20544;-93
2022/12/23 12:49:03;;;;;;;3.30;1.80;;;13.90;99.90;;;;;;5043114;28;20190;-92
2022/12/23 12:52:00;;;;;;;2.60;1.30;;;14.10;99.90;;;;;;5044914;28;20748;-92
2022/12/23 12:55:29;;;;;;;1.60;1.27;;;14.10;99.90;;;;;;5050972;28;20212;-89
2022/12/23 12:58:22;;;;;;;2.40;1.27;;;14.20;99.90;;;;;;4974798;28;20276;-93
2022/12/23 13:01:28;;;;;;;2.13;1.37;;;14.20;99.90;;;;;;5011553;28;20181;-91
2022/12/23 13:04:31;;;;;;;1.73;1.23;;;14.50;99.90;;;;;;5071628;28;20272;-92
2022/12/23 13:08:00;;;;;;;;;;;;;;;;;;;;;
2022/12/23 13:11:23;;;;;;;2.67;1.60;;;14.50;99.90;;;;;;5073052;28;20189;-91
2022/12/23 13:13:58;;;;;;;2.07;1.23;;;14.50;99.90;;;;;;5051692;28;20232;-91
2022/12/23 13:16:50;;;;;;;1.50;1.00;;;14.50;99.90;;;;;;5064646;28;20766;-91
2022/12/23 13:20:05;;;;;;;2.00;1.00;;;14.50;99.90;;;;;;5070579;28;20181;-91
2022/12/23 13:22:37;;;;;;;3.83;1.60;;;14.40;99.90;;;;;;4984482;28;20617;-92
2022/12/23 13:25:45;;;;;;;1.83;1.13;;;14.40;99.90;;;;;;5036175;28;20184;-91
2022/12/23 13:29:14;;;;;;;2.20;1.50;;;14.40;99.90;;;;;;4987461;28;20209;-90
2022/12/23 13:32:17;;;;;;;1.87;1.23;;;14.30;99.90;;;;;;5024985;28;20204;-91
2022/12/23 13:35:05;;;;;;;2.13;1.53;;;14.30;99.90;;;;;;5010462;28;20184;-90
2022/12/23 13:38:22;;;;;;;2.03;1.40;;;14.30;99.90;;;;;;5049508;28;20221;-91
2022/12/23 13:41:12;;;;;;;2.20;1.70;;;14.30;99.90;;;;;;5048235;28;20633;-89
2022/12/23 13:43:48;;;;;;;2.13;1.63;;;14.30;99.90;;;;;;5043854;28;20227;-92
2022/12/23 13:46:59;;;;;;;2.80;1.80;;;14.30;99.90;;;;;;5046000;28;20283;-90
2022/12/23 13:50:22;;;;;;;2.80;2.10;;;14.30;99.90;;;;;;5039429;28;20187;-90
2022/12/23 13:53:11;;;;;;;3.07;2.00;;;14.20;99.90;;;;;;4943638;29;20203;-88
2022/12/23 13:56:26;;;;;;;2.70;1.73;;;14.20;99.90;;;;;;5048291;28;20213;-90
2022/12/23 13:59:10;;;;;;;2.97;2.00;;;14.30;99.90;;;;;;5043495;28;20190;-89
2022/12/23 14:02:02;;;;;;;3.67;2.20;;;14.30;99.90;;;;;;5063129;28;20227;-86
2022/12/23 14:05:49;;;;;;;2.30;1.90;;;14.20;99.90;;;;;;5077779;28;20165;-89
2022/12/23 14:08:48;;;;;;;3.70;1.70;;;14.20;99.90;;;;;;5064140;28;20196;-90
2022/12/23 14:12:03;;;;;;;3.03;1.17;;;14.20;99.90;;;;;;5073780;28;20195;-91
2022/12/23 14:15:06;;;;;;;2.53;1.30;;;14.30;99.90;;;;;;5077720;28;20236;-91
2022/12/23 14:18:10;;;;;;;4.10;1.50;;;14.30;99.90;;;;;;5053025;28;20216;-94
2022/12/23 14:22:25;;;;;;;;;;;;;;;;;;;;;
2022/12/23 14:25:34;;;;;;;5.37;3.40;;;14.40;99.90;;;;;;5011226;28;20214;-90
2022/12/23 14:29:15;;;;;;;;;;;;;;;;;;;;;
2022/12/23 14:31:59;;;;;;;4.50;1.50;;;14.30;99.90;;;;;;5014006;28;20231;-90
2022/12/23 14:34:58;;;;;;;3.90;1.40;;;14.30;99.90;;;;;;5032941;28;20633;-90
2022/12/23 14:38:11;;;;;;;5.57;1.70;;;14.30;99.90;;;;;;5027306;28;20228;-91
2022/12/23 14:40:54;;;;;;;7.10;2.03;;;14.30;99.90;;;;;;5001316;28;20186;-91
2022/12/23 14:43:54;;;;;;;5.63;1.77;;;14.30;99.90;;;;;;5040168;28;20292;-90
2022/12/23 14:46:58;;;;;;;8.43;2.10;;;14.30;99.90;;;;;;5050338;28;20185;-91
2022/12/23 14:49:48;;;;;;;7.40;2.17;;;14.30;99.90;;;;;;5067425;28;20184;-88
2022/12/23 14:53:07;;;;;;;6.93;1.97;;;14.30;99.90;;;;;;5050241;28;20208;-91
2022/12/23 14:56:12;;;;;;;6.97;2.13;;;14.30;99.90;;;;;;4979269;28;20179;-89
2022/12/23 14:59:02;;;;;;;6.87;1.97;;;14.20;99.90;;;;;;5063369;28;20570;-87
2022/12/23 15:01:46;;;;;;;8.50;2.57;;;14.10;99.90;;;;;;5019516;28;20299;-90
2022/12/23 15:04:30;;;;;;;7.77;3.00;;;14.10;99.90;;;;;;5025560;28;20180;-90
2022/12/23 15:07:56;;;;;;;11.07;2.60;;;14.20;99.90;;;;;;5034466;28;20199;-90
2022/12/23 15:11:00;;;;;;;10.63;2.57;;;14.10;99.90;;;;;;5051119;28;20193;-91
2022/12/23 15:13:54;;;;;;;9.77;2.47;;;14.10;99.90;;;;;;5066990;28;20185;-91
2022/12/23 15:16:45;;;;;;;9.53;3.27;;;14.00;99.90;;;;;;5050683;28;20221;-89
2022/12/23 15:19:35;;;;;;;11.60;2.93;;;14.30;99.90;;;;;;5072931;28;20168;-91
2022/12/23 15:22:26;;;;;;;11.03;3.27;;;14.10;97.30;;;;;;5050353;28;20663;-90
2022/12/23 15:24:55;;;;;;;12.17;3.40;;;14.10;97.00;;;;;;5030090;28;20717;-91
2022/12/23 15:27:38;;;;;;;13.30;3.90;;;14.10;97.20;;;;;;5045194;28;20188;-91
2022/12/23 15:30:51;;;;;;;14.73;4.07;;;14.10;96.60;;;;;;5055580;28;20211;-91
2022/12/23 15:33:34;;;;;;;13.63;3.83;;;14.10;96.40;;;;;;5066528;28;20177;-92
2022/12/23 15:36:24;;;;;;;14.07;4.47;;;14.10;96.00;;;;;;5039252;28;20215;-91
2022/12/23 15:39:10;;;;;;;20.77;4.63;;;14.00;95.90;;;;;;5065301;28;20200;-89
2022/12/23 15:41:56;;;;;;;20.37;4.87;;;14.00;96.30;;;;;;5047168;28;20191;-90
2022/12/23 15:44:50;;;;;;;19.53;4.63;;;14.00;94.70;;;;;;5064784;28;20211;-89
2022/12/23 15:47:41;;;;;;;11.77;3.60;;;13.90;92.90;;;;;;5049581;28;20185;-90
2022/12/23 15:50:49;;;;;;;15.60;5.00;;;13.90;93.50;;;;;;5047666;28;20185;-90
2022/12/23 15:56:04;;;;;;;19.00;5.17;;;13.90;93.80;;;;;;5115366;23;20222;-90
2022/12/23 15:58:40;;;;;;;18.67;6.03;;;13.90;94.40;;;;;;5101618;28;20200;-89
2022/12/23 16:01:31;;;;;;;20.30;5.80;;;13.80;95.30;;;;;;5094173;23;20260;-86
2022/12/23 16:04:41;;;;;;;17.87;4.90;;;13.80;95.80;;;;;;5055545;28;20173;-89
2022/12/23 16:08:03;;;;;;;;;;;;;;;;;;;;;
2022/12/23 16:10:40;;;;;;;18.47;5.33;;;13.70;95.70;;;;;;5050670;28;20190;-88
2022/12/23 16:13:45;;;;;;;18.93;5.17;;;13.70;95.60;;;;;;5053878;28;20178;-87
2022/12/23 16:16:44;;;;;;;17.77;4.43;;;13.40;94.70;;;;;;5075008;28;20274;-91
2022/12/23 16:19:45;;;;;;;21.97;5.77;;;13.70;94.30;;;;;;5068497;28;20191;-87
2022/12/23 16:22:50;;;;;;;24.27;5.43;;;13.80;93.70;;;;;;5064389;28;20213;-87
2022/12/23 16:25:34;;;;;;;19.80;5.50;;;13.60;93.60;;;;;;5060820;28;20186;-89
2022/12/23 16:28:29;;;;;;;21.70;5.87;;;13.60;93.70;;;;;;5049135;28;20198;-88
2022/12/23 16:31:02;;;;;;;20.87;5.77;;;13.60;93.30;;;;;;5044985;28;20192;-89
2022/12/23 16:33:54;;;;;;;16.20;5.07;;;13.60;93.00;;;;;;5044346;28;20182;-86
2022/12/23 16:36:49;;;;;;;20.63;5.73;;;13.50;93.10;;;;;;5055941;28;20227;-88
2022/12/23 16:39:30;;;;;;;25.23;5.27;;;13.60;93.10;;;;;;5077638;28;20255;-89
2022/12/23 16:42:09;;;;;;;26.37;5.50;;;13.60;93.50;;;;;;5077218;28;20255;-92
2022/12/23 16:44:37;;;;;;;19.47;5.00;;;13.60;93.20;;;;;;5064674;28;20201;-89
2022/12/23 16:47:18;;;;;;;18.17;5.43;;;13.60;93.20;;;;;;5070442;28;20197;-89
2022/12/23 16:49:54;;;;;;;24.80;5.67;;;13.60;93.50;;;;;;5075195;28;20206;-89
2022/12/23 16:52:20;;;;;;;24.17;5.90;;;13.50;93.90;;;;;;5043130;28;20242;-90
2022/12/23 16:54:50;;;;;;;23.57;5.67;;;13.60;94.10;;;;;;5070789;28;20188;-88
2022/12/23 16:57:19;;;;;;;24.77;5.93;;;13.40;94.30;;;;;;5069976;28;20318;-88
2022/12/23 16:59:46;;;;;;;20.07;6.57;;;13.60;93.90;;;;;;5065126;28;20192;-89
2022/12/23 17:02:50;;;;;;;22.10;5.27;;;13.60;94.20;;;;;;5059451;28;20218;-89
2022/12/23 17:05:31;;;;;;;15.93;5.30;;;13.60;94.60;;;;;;5062495;28;20275;-91
2022/12/23 17:08:02;;;;;;;19.13;5.53;;;13.60;94.80;;;;;;5093174;28;20180;-89
2022/12/23 17:10:49;;;;;;;20.10;5.53;;;13.60;94.70;;;;;;5068981;28;20264;-89
2022/12/23 17:13:20;;;;;;;18.07;5.70;;;13.60;94.90;;;;;;5065823;28;20184;-89
2022/12/23 17:16:10;;;;;;;24.53;6.03;;;13.50;94.80;;;;;;5062942;28;20424;-89
2022/12/23 17:18:37;;;;;;;17.00;5.63;;;13.60;95.50;;;;;;5072560;28;20185;-90
2022/12/23 17:21:31;;;;;;;22.63;5.77;;;13.40;95.00;;;;;;5070061;28;20277;-91
2022/12/23 17:24:26;;;;;;;17.23;5.07;;;13.30;95.30;;;;;;5073155;28;20185;-88
2022/12/23 17:27:31;;;;;;;23.10;5.60;;;13.50;95.10;;;;;;5053739;28;20184;-89
2022/12/23 17:30:28;;;;;;;;;;;;;;;;;;;;;
2022/12/23 17:33:29;;;;;;;23.20;5.53;;;13.50;93.50;;;;;;5080247;28;20206;-88
2022/12/23 17:36:01;;;;;;;22.17;5.30;;;13.50;93.70;;;;;;5052113;28;20246;-89
2022/12/23 17:38:28;;;;;;;19.43;5.03;;;13.50;94.30;;;;;;5050827;28;20188;-88
2022/12/23 17:41:42;;;;;;;20.60;5.73;;;13.80;94.30;;;;;;5070926;28;20177;-89
2022/12/23 17:44:14;;;;;;;18.47;4.87;;;13.60;93.90;;;;;;5072328;28;20171;-88
2022/12/23 17:46:54;;;;;;;21.73;4.77;;;13.50;94.70;;;;;;5082302;28;20188;-88
2022/12/23 17:49:42;;;;;;;19.23;5.73;;;13.40;95.40;;;;;;5076461;28;20715;-89
2022/12/23 17:52:39;;;;;;;22.40;5.83;;;13.40;97.40;;;;;;5075023;28;20203;-88
2022/12/23 17:55:28;;;;;;;19.73;5.63;;;13.40;97.20;;;;;;5083134;28;20172;-87
2022/12/23 17:58:25;;;;;;;22.40;6.47;;;13.40;98.50;;;;;;5079650;28;20218;-90
2022/12/23 18:01:23;;;;;;;21.83;6.43;;;13.50;97.80;;;;;;5068358;28;20289;-89
2022/12/23 18:04:15;;;;;;;20.07;5.70;;;13.30;99.30;;;;;;5069607;28;20636;-90
2022/12/23 18:06:45;;;;;;;25.83;6.50;;;13.30;99.00;;;;;;5072421;28;20181;-90
2022/12/23 18:09:20;;;;;;;29.23;6.50;;;13.20;99.00;;;;;;5073030;28;20182;-89
2022/12/23 18:12:12;;;;;;;26.53;7.23;;;13.20;99.40;;;;;;5070979;28;20211;-90
2022/12/23 18:14:41;;;;;;;18.27;5.40;;;13.20;99.90;;;;;;5070630;28;20671;-89
2022/12/23 18:17:26;;;;;;;25.37;6.93;;;13.20;99.30;;;;;;5073694;28;20223;-90
2022/12/23 18:23:43;;;;;;;33.10;7.00;;;13.20;99.90;;;;;;4964820;28;20238;-89
2022/12/23 18:26:40;;;;;;;;;;;;;;;;;;;;;
2022/12/23 18:29:10;;;;;;;27.67;6.80;;;13.20;99.80;;;;;;5081716;28;20274;-90
2022/12/23 18:31:55;;;;;;;29.53;6.87;;;13.20;99.00;;;;;;5061397;28;20243;-88
2022/12/23 18:37:42;;;;;;;22.00;6.37;;;13.20;97.10;;;;;;5073429;28;20260;-89
2022/12/23 18:40:53;;;;;;;;;;;;;;;;;;;;;
2022/12/23 18:43:31;;;;;;;26.57;6.07;;;13.20;95.80;;;;;;5081914;28;20214;-87
2022/12/23 18:45:56;;;;;;;23.80;6.83;;;13.20;95.60;;;;;;5094151;28;20192;-88
2022/12/23 18:49:30;;;;;;;24.83;6.37;;;13.30;94.50;;;;;;5092847;28;20182;-90
2022/12/23 18:52:21;;;;;;;22.77;5.83;;;13.20;93.90;;;;;;4995789;28;20206;-87
2022/12/23 18:55:29;;;;;;;;;;;;;;;;;;;;;
2022/12/23 18:58:24;;;;;;;22.07;6.13;;;13.20;93.40;;;;;;5090230;28;20239;-90
2022/12/23 19:00:52;;;;;;;25.47;7.03;;;13.20;92.60;;;;;;5054664;28;20181;-90
2022/12/23 19:04:20;;;;;;;26.73;6.33;;;13.10;93.30;;;;;;5078151;28;20211;-89
2022/12/23 19:06:51;;;;;;;21.33;5.50;;;13.10;92.90;;;;;;5069403;28;20275;-89
2022/12/23 19:09:26;;;;;;;20.53;5.40;;;13.10;92.70;;;;;;5065742;28;20268;-90
2022/12/23 19:12:24;;;;;;;17.63;5.80;;;13.00;93.40;;;;;;5064901;28;20180;-90
2022/12/23 19:14:53;;;;;;;26.20;6.17;;;13.00;94.50;;;;;;5064239;28;20194;-88
2022/12/23 19:17:25;;;;;;;21.63;6.50;;;12.90;95.20;;;;;;5048317;28;20263;-90
2022/12/23 19:20:21;;;;;;;24.20;5.80;;;12.90;96.00;;;;;;5058853;28;20178;-88
2022/12/23 19:22:52;;;;;;;24.70;6.50;;;12.90;96.40;;;;;;5061271;28;20185;-88
2022/12/23 19:25:57;;;;;;;20.90;6.03;;;12.90;97.50;;;;;;5074988;28;20214;-89
2022/12/23 19:28:31;;;;;;;23.57;6.47;;;12.90;97.90;;;;;;5088354;28;20624;-88
2022/12/23 19:31:13;;;;;;;27.37;7.30;;;12.80;98.50;;;;;;5122038;22;20232;-90
2022/12/23 19:34:10;;;;;;;21.23;6.07;;;12.80;98.80;;;;;;5081667;28;20174;-89
2022/12/23 19:37:18;;;;;;;25.30;6.53;;;12.80;99.30;;;;;;5094504;28;20736;-90
2022/12/23 19:39:57;;;;;;;22.10;5.73;;;12.80;98.40;;;;;;5099112;28;20666;-89
2022/12/23 19:42:59;;;;;;;28.57;7.00;;;12.80;98.50;;;;;;5080270;28;20177;-90
2022/12/23 19:45:27;;;;;;;20.17;5.77;;;12.80;98.70;;;;;;5080110;28;20265;-90
2022/12/23 19:48:02;;;;;;;22.07;6.47;;;12.80;97.80;;;;;;5093293;28;20200;-90
2022/12/23 19:50:32;;;;;;;28.33;6.63;;;12.80;97.70;;;;;;5106146;28;20228;-90
2022/12/23 19:53:11;;;;;;;29.13;6.57;;;12.80;97.00;;;;;;5104628;28;20183;-91
2022/12/23 19:55:42;;;;;;;23.50;6.70;;;12.90;96.90;;;;;;5104955;28;20175;-91
2022/12/23 19:58:14;;;;;;;23.17;6.23;;;12.80;96.30;;;;;;5103515;28;20246;-90
2022/12/23 20:03:50;;;;;;;24.87;6.33;;;12.80;94.10;;;;;;5131058;28;20194;-87
2022/12/23 20:06:26;;;;;;;22.57;5.87;;;12.80;93.10;;;;;;5124918;28;20181;-89
2022/12/23 20:09:05;;;;;;;24.33;6.07;;;12.80;93.20;;;;;;5101221;28;20543;-88
2022/12/23 20:11:41;;;;;;;27.07;6.40;;;12.80;93.10;;;;;;5090064;28;20271;-88
2022/12/23 20:14:13;;;;;;;19.90;5.57;;;12.80;92.60;;;;;;5114046;28;20193;-88
2022/12/23 20:16:55;;;;;;;19.53;5.83;;;12.80;90.70;;;;;;5126440;28;20277;-90
2022/12/23 20:19:26;;;;;;;21.90;5.77;;;12.80;91.50;;;;;;5107388;28;20182;-88
2022/12/23 20:21:52;;;;;;;24.90;5.53;;;12.80;91.10;;;;;;5103819;28;20242;-89
2022/12/23 20:24:19;;;;;;;22.50;6.00;;;12.70;91.00;;;;;;5102944;28;20227;-89
2022/12/23 20:26:47;;;;;;;26.07;6.30;;;12.70;91.50;;;;;;5098039;28;20302;-88
2022/12/23 20:29:17;;;;;;;26.83;6.30;;;12.70;91.70;;;;;;5098170;28;20205;-89
2022/12/23 20:31:43;;;;;;;22.53;5.97;;;12.70;91.50;;;;;;5119262;28;20203;-89
2022/12/23 20:34:21;;;;;;;23.23;5.43;;;12.70;91.70;;;;;;5099106;28;20635;-88
2022/12/23 20:37:10;;;;;;;21.50;5.83;;;12.60;91.70;;;;;;5099058;28;20215;-88
2022/12/23 20:39:40;;;;;;;29.53;5.97;;;12.60;91.60;;;;;;5117164;28;20224;-88
2022/12/23 20:42:09;;;;;;;26.37;6.17;;;12.50;92.20;;;;;;5082182;28;20187;-89
2022/12/23 20:44:35;;;;;;;24.10;6.37;;;12.40;91.70;;;;;;5099243;28;20176;-89
2022/12/23 20:47:09;;;;;;;28.30;6.57;;;12.50;92.00;;;;;;5100161;28;20228;-89
2022/12/23 20:49:37;;;;;;;23.23;6.10;;;12.40;92.20;;;;;;5098801;28;20178;-89
2022/12/23 20:52:20;;;;;;;22.43;6.00;;;12.40;91.80;;;;;;5099666;28;20207;-89
2022/12/23 20:54:54;;;;;;;23.13;5.73;;;12.40;91.70;;;;;;5100027;28;20554;-91
2022/12/23 20:57:35;;;;;;;19.27;6.63;;;12.40;92.20;;;;;;5100931;28;20695;-89
2022/12/23 21:00:05;;;;;;;26.47;6.43;;;12.40;92.30;;;;;;5101245;28;20259;-89
2022/12/23 21:02:31;;;;;;;27.20;5.97;;;12.30;92.40;;;;;;5117460;28;20225;-90
2022/12/23 21:04:57;;;;;;;26.37;6.07;;;12.30;92.50;;;;;;5116702;28;20179;-89
2022/12/23 21:07:39;;;;;;;24.70;6.90;;;12.40;92.30;;;;;;5102346;28;20198;-89
2022/12/23 21:10:14;;;;;;;30.13;7.50;;;12.40;92.10;;;;;;5100355;28;20185;-90
2022/12/23 21:12:59;;;;;;;;;;;;;;;;;;;;;
2022/12/23 21:15:53;;;;;;;22.93;6.27;;;12.30;92.00;;;;;;5117908;28;20257;-89
2022/12/23 21:19:00;;;;;;;25.17;6.60;;;12.40;91.70;;;;;;5101794;28;20226;-90
2022/12/23 21:21:34;;;;;;;23.10;6.33;;;12.30;92.00;;;;;;5073416;28;20179;-91
2022/12/23 21:24:09;;;;;;;24.80;6.00;;;12.30;92.80;;;;;;5095532;28;20658;-90
2022/12/23 21:26:55;;;;;;;26.87;6.33;;;12.30;92.80;;;;;;5118388;28;20179;-90
2022/12/23 21:29:27;;;;;;;26.03;6.27;;;12.30;92.50;;;;;;5114746;28;20205;-90
2022/12/23 21:31:59;;;;;;;28.33;6.67;;;12.20;93.70;;;;;;5137798;27;20195;-89
2022/12/23 21:34:37;;;;;;;28.17;7.70;;;12.20;93.80;;;;;;5120550;28;20174;-90
2022/12/23 21:37:27;;;;;;;27.67;7.53;;;12.20;94.30;;;;;;5119257;28;20214;-91
2022/12/23 21:40:14;;;;;;;24.10;7.23;;;12.20;95.30;;;;;;5102803;28;20216;-88
2022/12/23 21:42:54;;;;;;;31.23;7.80;;;12.20;95.30;;;;;;5116329;28;20175;-89
2022/12/23 21:45:55;;;;;;;28.43;6.83;;;12.30;95.90;;;;;;5100381;28;20267;-89
2022/12/23 21:49:00;;;;;;;24.73;6.73;;;12.10;96.00;;;;;;5085982;28;20272;-89
2022/12/23 21:51:35;;;;;;;27.27;6.30;;;12.10;96.50;;;;;;5012905;28;20227;-88
2022/12/23 21:54:04;;;;;;;30.43;6.73;;;12.00;97.00;;;;;;4996478;28;20184;-90
2022/12/23 21:56:56;;;;;;;25.20;6.50;;;12.00;97.50;;;;;;5016120;28;20683;-89
2022/12/23 21:59:39;;;;;;;33.70;8.10;;;12.00;98.30;;;;;;5031345;28;20190;-89
2022/12/23 22:02:05;;;;;;;32.70;7.17;;;12.00;97.50;;;;;;5024639;28;20228;-87
2022/12/23 22:04:39;;;;;;;35.17;7.73;;;12.00;98.10;;;;;;5021928;28;20244;-89
2022/12/23 22:07:08;;;;;;;31.97;7.47;;;12.00;97.80;;;;;;5015951;28;20236;-87
2022/12/23 22:09:34;;;;;;;23.03;6.73;;;12.00;97.90;;;;;;5048587;28;20187;-91
2022/12/23 22:12:17;;;;;;;32.47;7.10;;;11.90;98.80;;;;;;5089530;28;20179;-90
2022/12/23 22:15:03;;;;;;;28.00;7.47;;;12.00;98.90;;;;;;5091351;28;20240;-91
2022/12/23 22:17:30;;;;;;;28.63;7.03;;;12.10;97.80;;;;;;5098234;28;20274;-88
2022/12/23 22:20:05;;;;;;;30.87;7.17;;;12.20;96.80;;;;;;5106136;28;20230;-89
2022/12/23 22:22:55;;;;;;;30.07;6.47;;;12.20;97.30;;;;;;5087198;28;20298;-89
2022/12/23 22:26:00;;;;;;;28.70;6.77;;;12.00;98.90;;;;;;5118569;28;20191;-88
2022/12/23 22:28:40;;;;;;;28.27;7.03;;;12.00;98.70;;;;;;5066603;28;20183;-89
2022/12/23 22:32:19;;;;;;;29.07;6.33;;;12.00;99.90;;;;;;5088752;28;20233;-88
2022/12/23 22:34:48;;;;;;;;;;;;;;;;;;;;;
2022/12/23 22:37:15;;;;;;;27.27;6.80;;;12.10;99.90;;;;;;5104338;28;20291;-90
2022/12/23 22:39:41;;;;;;;25.00;6.37;;;12.10;99.10;;;;;;5101284;28;20544;-88
2022/12/23 22:42:21;;;;;;;28.80;6.47;;;12.10;99.70;;;;;;5109827;28;20182;-89
2022/12/23 22:44:53;;;;;;;22.23;5.67;;;12.10;99.40;;;;;;5109878;28;20156;-89
2022/12/23 22:47:49;;;;;;;27.30;6.90;;;12.10;99.50;;;;;;5097695;28;20187;-89
2022/12/23 22:50:15;;;;;;;22.00;7.40;;;12.10;99.90;;;;;;5093662;28;20676;-89
2022/12/23 22:53:04;;;;;;;29.27;6.93;;;12.10;99.90;;;;;;5081982;28;20191;-89
2022/12/23 22:55:37;;;;;;;28.53;6.23;;;12.10;99.70;;;;;;5089017;28;20251;-89
2022/12/23 23:01:24;;;;;;;27.87;6.50;;;12.00;99.90;;;;;;5105899;28;20182;-89
2022/12/23 23:04:08;;;;;;;24.33;6.00;;;12.10;99.90;;;;;;5086243;28;20177;-89
2022/12/23 23:07:03;;;;;;;31.40;6.80;;;12.10;99.90;;;;;;5079922;28;20184;-89
2022/12/23 23:10:10;;;;;;;29.80;6.27;;;12.00;99.90;;;;;;5076821;28;20547;-89
2022/12/23 23:13:12;;;;;;;;;;;;;;;;;;;;;
2022/12/23 23:15:47;;;;;;;25.03;6.47;;;12.10;99.90;;;;;;4995354;28;20179;-89
2022/12/23 23:18:26;;;;;;;30.07;6.93;;;12.00;99.90;;;;;;4978682;28;20213;-89
2022/12/23 23:20:55;;;;;;;28.50;6.23;;;12.10;99.90;;;;;;4979962;28;20174;-89
2022/12/23 23:24:14;;;;;;;26.77;6.83;;;12.20;99.90;;;;;;4982262;28;20185;-89
2022/12/23 23:27:57;;;;;;;;;;;;;;;;;;;;;
2022/12/23 23:31:09;;;;;;;29.73;5.73;;;12.10;99.90;;;;;;4872928;29;20194;-87
2022/12/23 23:34:19;;;;;;;27.40;6.73;;;12.10;99.90;;;;;;4844359;29;20185;-88
2022/12/23 23:44:10;;;;;;;28.03;5.93;;;12.00;99.90;;;;;;4789690;30;20219;-89
2022/12/23 23:46:38;;;;;;;24.47;6.77;;;12.00;99.90;;;;;;4846108;29;20262;-90
2022/12/23 23:49:12;;;;;;;25.87;6.30;;;12.00;99.90;;;;;;4897552;29;20199;-90
2022/12/23 23:51:50;;;;;;;30.30;6.83;;;12.00;99.90;;;;;;5004332;28;20234;-88
2022/12/23 23:54:34;;;;;;;24.57;6.93;;;11.90;99.90;;;;;;5060609;28;20192;-89
2022/12/23 23:57:13;;;;;;;22.03;6.13;;;11.80;99.90;;;;;;5056946;28;20224;-89
2022/12/23 23:59:42;;;;;;;25.30;6.03;;;11.90;99.90;;;;;;5049731;28;20524;-89
